sensor_id;sensor_type;location;lat;lon;timestamp;temperature;humidity
7129;DHT22;3606;52.930;8.644;2023-11-19T00:02:08;8.00;99.90
7129;DHT22;3606;52.930;8.644;2023-11-19T00:04:37;8.00;99.90
7129;DHT22;3606;52.930;8.644;2023-11-19T00:07:05;8.00;99.90
7129;DHT22;3606;52.930;8.644;2023-11-19T00:09:32;8.10;99.90
7129;DHT22;3606;52.930;8.644;2023-11-19T00:11:58;8.10;99.90
7129;DHT22;3606;52.930;8.644;2023-11-19T00:14:26;8.10;99.90
7129;DHT22;3606;52.930;8.644;2023-11-19T00:16:51;8.20;99.90
7129;DHT22;3606;52.930;8.644;2023-11-19T00:19:17;8.20;99.90
7129;DHT22;3606;52.930;8.644;2023-11-19T00:21:43;8.30;99.90
7129;DHT22;3606;52.930;8.644;2023-11-19T00:24:09;8.30;99.90
7129;DHT22;3606;52.930;8.644;2023-11-19T00:26:34;8.30;99.90
7129;DHT22;3606;52.930;8.644;2023-11-19T00:29:00;8.40;99.90
7129;DHT22;3606;52.930;8.644;2023-11-19T00:31:26;8.40;99.90
7129;DHT22;3606;52.930;8.644;2023-11-19T00:33:53;8.40;99.90
7129;DHT22;3606;52.930;8.644;2023-11-19T00:36:19;8.50;99.90
7129;DHT22;3606;52.930;8.644;2023-11-19T00:38:44;8.50;99.90
7129;DHT22;3606;52.930;8.644;2023-11-19T00:41:10;8.50;99.90
7129;DHT22;3606;52.930;8.644;2023-11-19T00:43:36;8.60;99.90
7129;DHT22;3606;52.930;8.644;2023-11-19T00:46:02;8.60;99.90
7129;DHT22;3606;52.930;8.644;2023-11-19T00:48:28;8.70;99.90
7129;DHT22;3606;52.930;8.644;2023-11-19T00:50:54;8.70;99.90
7129;DHT22;3606;52.930;8.644;2023-11-19T00:53:19;8.80;99.90
7129;DHT22;3606;52.930;8.644;2023-11-19T00:55:45;8.80;99.90
7129;DHT22;3606;52.930;8.644;2023-11-19T00:58:10;8.90;99.90
7129;DHT22;3606;52.930;8.644;2023-11-19T01:00:36;8.90;99.90
7129;DHT22;3606;52.930;8.644;2023-11-19T01:03:02;8.90;99.90
7129;DHT22;3606;52.930;8.644;2023-11-19T01:05:27;9.00;99.90
7129;DHT22;3606;52.930;8.644;2023-11-19T01:07:54;9.10;99.90
7129;DHT22;3606;52.930;8.644;2023-11-19T01:10:19;9.10;99.90
7129;DHT22;3606;52.930;8.644;2023-11-19T01:12:46;9.10;99.90
7129;DHT22;3606;52.930;8.644;2023-11-19T01:15:11;9.20;99.90
7129;DHT22;3606;52.930;8.644;2023-11-19T01:17:38;9.30;99.90
7129;DHT22;3606;52.930;8.644;2023-11-19T01:20:04;9.20;99.90
7129;DHT22;3606;52.930;8.644;2023-11-19T01:22:32;9.30;99.90
7129;DHT22;3606;52.930;8.644;2023-11-19T01:24:58;9.40;99.90
7129;DHT22;3606;52.930;8.644;2023-11-19T01:27:24;9.40;99.90
7129;DHT22;3606;52.930;8.644;2023-11-19T01:29:50;9.50;99.90
7129;DHT22;3606;52.930;8.644;2023-11-19T01:32:15;9.60;99.90
7129;DHT22;3606;52.930;8.644;2023-11-19T01:34:41;9.60;99.90
7129;DHT22;3606;52.930;8.644;2023-11-19T01:37:06;9.60;99.90
7129;DHT22;3606;52.930;8.644;2023-11-19T01:39:34;9.60;99.90
7129;DHT22;3606;52.930;8.644;2023-11-19T01:42:00;9.60;99.90
7129;DHT22;3606;52.930;8.644;2023-11-19T01:44:25;9.60;99.90
7129;DHT22;3606;52.930;8.644;2023-11-19T01:46:51;9.70;99.90
7129;DHT22;3606;52.930;8.644;2023-11-19T01:49:18;9.80;99.90
7129;DHT22;3606;52.930;8.644;2023-11-19T01:51:45;9.90;99.90
7129;DHT22;3606;52.930;8.644;2023-11-19T01:54:12;9.90;99.90
7129;DHT22;3606;52.930;8.644;2023-11-19T01:56:39;9.90;99.90
7129;DHT22;3606;52.930;8.644;2023-11-19T01:59:07;9.90;99.90
7129;DHT22;3606;52.930;8.644;2023-11-19T02:01:33;10.00;99.90
7129;DHT22;3606;52.930;8.644;2023-11-19T02:04:03;10.00;99.90
7129;DHT22;3606;52.930;8.644;2023-11-19T02:06:32;10.10;99.90
7129;DHT22;3606;52.930;8.644;2023-11-19T02:08:58;10.10;99.90
7129;DHT22;3606;52.930;8.644;2023-11-19T02:11:24;10.20;99.90
7129;DHT22;3606;52.930;8.644;2023-11-19T02:13:55;10.20;99.90
7129;DHT22;3606;52.930;8.644;2023-11-19T02:16:21;10.30;99.90
7129;DHT22;3606;52.930;8.644;2023-11-19T02:18:47;10.30;99.90
7129;DHT22;3606;52.930;8.644;2023-11-19T02:21:13;10.40;99.90
7129;DHT22;3606;52.930;8.644;2023-11-19T02:23:40;10.40;99.90
7129;DHT22;3606;52.930;8.644;2023-11-19T02:26:13;10.40;99.90
7129;DHT22;3606;52.930;8.644;2023-11-19T02:28:41;10.50;99.90
7129;DHT22;3606;52.930;8.644;2023-11-19T02:31:08;10.50;99.90
7129;DHT22;3606;52.930;8.644;2023-11-19T02:33:39;10.50;99.90
7129;DHT22;3606;52.930;8.644;2023-11-19T02:36:06;10.50;99.90
7129;DHT22;3606;52.930;8.644;2023-11-19T02:38:33;10.60;99.90
7129;DHT22;3606;52.930;8.644;2023-11-19T02:40:58;10.70;99.90
7129;DHT22;3606;52.930;8.644;2023-11-19T02:43:24;10.70;99.90
7129;DHT22;3606;52.930;8.644;2023-11-19T02:45:50;10.70;99.90
7129;DHT22;3606;52.930;8.644;2023-11-19T02:48:16;10.60;99.90
7129;DHT22;3606;52.930;8.644;2023-11-19T02:50:42;10.80;99.90
7129;DHT22;3606;52.930;8.644;2023-11-19T02:53:07;10.80;99.90
7129;DHT22;3606;52.930;8.644;2023-11-19T02:55:33;10.80;99.90
7129;DHT22;3606;52.930;8.644;2023-11-19T02:58:04;10.80;99.90
7129;DHT22;3606;52.930;8.644;2023-11-19T03:00:45;10.90;99.90
7129;DHT22;3606;52.930;8.644;2023-11-19T03:03:19;11.00;99.90
7129;DHT22;3606;52.930;8.644;2023-11-19T03:05:51;11.00;99.90
7129;DHT22;3606;52.930;8.644;2023-11-19T03:08:17;11.10;99.90
7129;DHT22;3606;52.930;8.644;2023-11-19T03:10:43;11.10;99.90
7129;DHT22;3606;52.930;8.644;2023-11-19T03:13:12;11.10;99.90
7129;DHT22;3606;52.930;8.644;2023-11-19T03:15:42;11.20;99.90
7129;DHT22;3606;52.930;8.644;2023-11-19T03:18:08;11.20;99.90
7129;DHT22;3606;52.930;8.644;2023-11-19T03:20:33;11.20;99.90
7129;DHT22;3606;52.930;8.644;2023-11-19T03:22:59;11.30;99.90
7129;DHT22;3606;52.930;8.644;2023-11-19T03:25:27;11.30;99.90
7129;DHT22;3606;52.930;8.644;2023-11-19T03:27:59;11.20;99.90
7129;DHT22;3606;52.930;8.644;2023-11-19T03:30:24;11.30;99.90
7129;DHT22;3606;52.930;8.644;2023-11-19T03:32:50;11.40;99.90
7129;DHT22;3606;52.930;8.644;2023-11-19T03:35:15;11.40;99.90
7129;DHT22;3606;52.930;8.644;2023-11-19T03:37:41;11.40;99.90
7129;DHT22;3606;52.930;8.644;2023-11-19T03:40:07;11.30;99.90
7129;DHT22;3606;52.930;8.644;2023-11-19T03:42:33;11.30;99.90
7129;DHT22;3606;52.930;8.644;2023-11-19T03:44:58;11.40;99.90
7129;DHT22;3606;52.930;8.644;2023-11-19T03:47:24;11.30;99.90
7129;DHT22;3606;52.930;8.644;2023-11-19T03:49:51;11.40;99.90
7129;DHT22;3606;52.930;8.644;2023-11-19T03:52:17;11.30;99.90
7129;DHT22;3606;52.930;8.644;2023-11-19T03:54:43;11.40;99.90
7129;DHT22;3606;52.930;8.644;2023-11-19T03:57:09;11.30;99.90
7129;DHT22;3606;52.930;8.644;2023-11-19T03:59:37;11.40;99.90
7129;DHT22;3606;52.930;8.644;2023-11-19T04:02:03;11.50;99.90
7129;DHT22;3606;52.930;8.644;2023-11-19T04:04:29;11.50;99.90
7129;DHT22;3606;52.930;8.644;2023-11-19T04:06:55;11.40;99.90
7129;DHT22;3606;52.930;8.644;2023-11-19T04:09:21;11.50;99.90
7129;DHT22;3606;52.930;8.644;2023-11-19T04:11:47;11.50;99.90
7129;DHT22;3606;52.930;8.644;2023-11-19T04:14:13;11.60;99.90
7129;DHT22;3606;52.930;8.644;2023-11-19T04:16:39;11.60;99.90
7129;DHT22;3606;52.930;8.644;2023-11-19T04:19:06;11.60;99.90
7129;DHT22;3606;52.930;8.644;2023-11-19T04:21:32;11.60;99.90
7129;DHT22;3606;52.930;8.644;2023-11-19T04:23:58;11.60;99.90
7129;DHT22;3606;52.930;8.644;2023-11-19T04:26:24;11.60;99.90
7129;DHT22;3606;52.930;8.644;2023-11-19T04:28:49;11.60;99.90
7129;DHT22;3606;52.930;8.644;2023-11-19T04:31:15;11.70;99.90
7129;DHT22;3606;52.930;8.644;2023-11-19T04:33:44;11.70;99.90
7129;DHT22;3606;52.930;8.644;2023-11-19T04:36:10;11.70;99.90
7129;DHT22;3606;52.930;8.644;2023-11-19T04:38:36;11.70;99.90
7129;DHT22;3606;52.930;8.644;2023-11-19T04:41:04;11.80;99.90
7129;DHT22;3606;52.930;8.644;2023-11-19T04:43:31;11.70;99.90
7129;DHT22;3606;52.930;8.644;2023-11-19T04:45:56;11.70;99.90
7129;DHT22;3606;52.930;8.644;2023-11-19T04:48:23;11.70;99.90
7129;DHT22;3606;52.930;8.644;2023-11-19T04:50:49;11.70;99.90
7129;DHT22;3606;52.930;8.644;2023-11-19T04:53:18;11.80;99.90
7129;DHT22;3606;52.930;8.644;2023-11-19T04:55:43;11.80;99.90
7129;DHT22;3606;52.930;8.644;2023-11-19T04:58:24;11.80;99.90
7129;DHT22;3606;52.930;8.644;2023-11-19T05:00:49;11.80;99.90
7129;DHT22;3606;52.930;8.644;2023-11-19T05:03:15;11.70;99.90
7129;DHT22;3606;52.930;8.644;2023-11-19T05:05:40;11.70;99.90
7129;DHT22;3606;52.930;8.644;2023-11-19T05:08:06;11.80;99.90
7129;DHT22;3606;52.930;8.644;2023-11-19T05:10:32;11.70;99.90
7129;DHT22;3606;52.930;8.644;2023-11-19T05:12:57;11.80;99.90
7129;DHT22;3606;52.930;8.644;2023-11-19T05:15:23;11.80;99.90
7129;DHT22;3606;52.930;8.644;2023-11-19T05:17:49;11.80;99.90
7129;DHT22;3606;52.930;8.644;2023-11-19T05:20:14;11.80;99.90
7129;DHT22;3606;52.930;8.644;2023-11-19T05:22:41;11.80;99.90
7129;DHT22;3606;52.930;8.644;2023-11-19T05:25:07;11.70;99.90
7129;DHT22;3606;52.930;8.644;2023-11-19T05:27:34;11.80;99.90
7129;DHT22;3606;52.930;8.644;2023-11-19T05:30:01;11.70;99.90
7129;DHT22;3606;52.930;8.644;2023-11-19T05:32:27;11.70;99.90
7129;DHT22;3606;52.930;8.644;2023-11-19T05:34:52;11.70;99.90
7129;DHT22;3606;52.930;8.644;2023-11-19T05:37:18;11.70;99.90
7129;DHT22;3606;52.930;8.644;2023-11-19T05:39:45;11.70;99.90
7129;DHT22;3606;52.930;8.644;2023-11-19T05:42:10;11.60;99.90
7129;DHT22;3606;52.930;8.644;2023-11-19T05:44:36;11.60;99.90
7129;DHT22;3606;52.930;8.644;2023-11-19T05:47:02;11.60;99.90
7129;DHT22;3606;52.930;8.644;2023-11-19T05:49:27;11.60;99.90
7129;DHT22;3606;52.930;8.644;2023-11-19T05:51:53;11.60;99.90
7129;DHT22;3606;52.930;8.644;2023-11-19T05:54:21;11.60;99.90
7129;DHT22;3606;52.930;8.644;2023-11-19T05:56:49;11.50;99.90
7129;DHT22;3606;52.930;8.644;2023-11-19T05:59:15;11.60;99.90
7129;DHT22;3606;52.930;8.644;2023-11-19T06:01:43;11.50;99.90
7129;DHT22;3606;52.930;8.644;2023-11-19T06:04:09;11.50;99.90
7129;DHT22;3606;52.930;8.644;2023-11-19T06:06:36;11.60;99.90
7129;DHT22;3606;52.930;8.644;2023-11-19T06:09:01;11.60;99.90
7129;DHT22;3606;52.930;8.644;2023-11-19T06:11:28;11.60;99.90
7129;DHT22;3606;52.930;8.644;2023-11-19T06:13:53;11.60;99.90
7129;DHT22;3606;52.930;8.644;2023-11-19T06:16:19;11.60;99.90
7129;DHT22;3606;52.930;8.644;2023-11-19T06:18:45;11.60;99.90
7129;DHT22;3606;52.930;8.644;2023-11-19T06:21:11;11.50;99.90
7129;DHT22;3606;52.930;8.644;2023-11-19T06:23:37;11.60;99.90
7129;DHT22;3606;52.930;8.644;2023-11-19T06:26:02;11.70;99.90
7129;DHT22;3606;52.930;8.644;2023-11-19T06:28:28;11.70;99.90
7129;DHT22;3606;52.930;8.644;2023-11-19T06:30:54;11.70;99.90
7129;DHT22;3606;52.930;8.644;2023-11-19T06:33:19;11.80;99.90
7129;DHT22;3606;52.930;8.644;2023-11-19T06:35:45;11.70;99.90
7129;DHT22;3606;52.930;8.644;2023-11-19T06:38:11;11.70;99.90
7129;DHT22;3606;52.930;8.644;2023-11-19T06:40:36;11.70;99.90
7129;DHT22;3606;52.930;8.644;2023-11-19T06:43:03;11.70;99.90
7129;DHT22;3606;52.930;8.644;2023-11-19T06:45:33;11.60;99.90
7129;DHT22;3606;52.930;8.644;2023-11-19T06:48:05;11.60;99.90
7129;DHT22;3606;52.930;8.644;2023-11-19T06:50:31;11.60;99.90
7129;DHT22;3606;52.930;8.644;2023-11-19T06:52:57;11.60;99.90
7129;DHT22;3606;52.930;8.644;2023-11-19T06:55:23;11.60;99.90
7129;DHT22;3606;52.930;8.644;2023-11-19T06:57:49;11.60;99.90
7129;DHT22;3606;52.930;8.644;2023-11-19T07:00:14;11.60;99.90
7129;DHT22;3606;52.930;8.644;2023-11-19T07:02:40;11.60;99.90
7129;DHT22;3606;52.930;8.644;2023-11-19T07:05:06;11.60;99.90
7129;DHT22;3606;52.930;8.644;2023-11-19T07:07:33;11.60;99.90
7129;DHT22;3606;52.930;8.644;2023-11-19T07:09:59;11.60;99.90
7129;DHT22;3606;52.930;8.644;2023-11-19T07:12:25;11.60;99.90
7129;DHT22;3606;52.930;8.644;2023-11-19T07:14:52;11.60;99.90
7129;DHT22;3606;52.930;8.644;2023-11-19T07:17:19;11.50;99.90
7129;DHT22;3606;52.930;8.644;2023-11-19T07:19:46;11.50;99.90
7129;DHT22;3606;52.930;8.644;2023-11-19T07:22:11;11.50;99.90
7129;DHT22;3606;52.930;8.644;2023-11-19T07:24:39;11.50;99.90
7129;DHT22;3606;52.930;8.644;2023-11-19T07:27:05;11.50;99.90
7129;DHT22;3606;52.930;8.644;2023-11-19T07:29:32;11.50;99.90
7129;DHT22;3606;52.930;8.644;2023-11-19T07:31:57;11.50;99.90
7129;DHT22;3606;52.930;8.644;2023-11-19T07:34:24;11.50;99.90
7129;DHT22;3606;52.930;8.644;2023-11-19T07:36:50;11.50;99.90
7129;DHT22;3606;52.930;8.644;2023-11-19T07:39:15;11.50;99.90
7129;DHT22;3606;52.930;8.644;2023-11-19T07:41:41;11.50;99.90
7129;DHT22;3606;52.930;8.644;2023-11-19T07:44:06;11.50;99.90
7129;DHT22;3606;52.930;8.644;2023-11-19T07:46:32;11.50;99.90
7129;DHT22;3606;52.930;8.644;2023-11-19T07:48:58;11.50;99.90
7129;DHT22;3606;52.930;8.644;2023-11-19T07:51:24;11.40;99.90
7129;DHT22;3606;52.930;8.644;2023-11-19T07:53:49;11.40;99.90
7129;DHT22;3606;52.930;8.644;2023-11-19T07:56:15;11.40;99.90
7129;DHT22;3606;52.930;8.644;2023-11-19T07:58:40;11.30;99.90
7129;DHT22;3606;52.930;8.644;2023-11-19T08:01:07;11.10;99.90
7129;DHT22;3606;52.930;8.644;2023-11-19T08:03:32;11.00;99.90
7129;DHT22;3606;52.930;8.644;2023-11-19T08:06:01;11.00;99.90
7129;DHT22;3606;52.930;8.644;2023-11-19T08:08:27;11.10;99.90
7129;DHT22;3606;52.930;8.644;2023-11-19T08:10:55;11.10;99.90
7129;DHT22;3606;52.930;8.644;2023-11-19T08:13:23;11.10;99.90
7129;DHT22;3606;52.930;8.644;2023-11-19T08:15:48;11.10;99.90
7129;DHT22;3606;52.930;8.644;2023-11-19T08:18:14;11.10;99.90
7129;DHT22;3606;52.930;8.644;2023-11-19T08:20:40;11.00;99.90
7129;DHT22;3606;52.930;8.644;2023-11-19T08:23:06;11.00;99.90
7129;DHT22;3606;52.930;8.644;2023-11-19T08:25:32;10.90;99.90
7129;DHT22;3606;52.930;8.644;2023-11-19T08:27:59;10.80;99.90
7129;DHT22;3606;52.930;8.644;2023-11-19T08:30:25;10.90;99.90
7129;DHT22;3606;52.930;8.644;2023-11-19T08:32:51;10.90;99.90
7129;DHT22;3606;52.930;8.644;2023-11-19T08:35:16;10.90;99.90
7129;DHT22;3606;52.930;8.644;2023-11-19T08:37:42;10.90;99.90
7129;DHT22;3606;52.930;8.644;2023-11-19T08:40:09;10.90;99.90
7129;DHT22;3606;52.930;8.644;2023-11-19T08:42:34;10.90;99.90
7129;DHT22;3606;52.930;8.644;2023-11-19T08:45:00;11.00;99.90
7129;DHT22;3606;52.930;8.644;2023-11-19T08:47:26;11.00;99.90
7129;DHT22;3606;52.930;8.644;2023-11-19T08:49:51;11.00;99.90
7129;DHT22;3606;52.930;8.644;2023-11-19T08:52:20;11.00;99.90
7129;DHT22;3606;52.930;8.644;2023-11-19T08:54:46;11.10;99.90
7129;DHT22;3606;52.930;8.644;2023-11-19T08:57:11;11.20;99.90
7129;DHT22;3606;52.930;8.644;2023-11-19T08:59:37;11.30;99.90
7129;DHT22;3606;52.930;8.644;2023-11-19T09:02:05;11.30;99.90
7129;DHT22;3606;52.930;8.644;2023-11-19T09:04:32;11.40;99.90
7129;DHT22;3606;52.930;8.644;2023-11-19T09:06:58;11.30;99.90
7129;DHT22;3606;52.930;8.644;2023-11-19T09:09:23;11.30;99.90
7129;DHT22;3606;52.930;8.644;2023-11-19T09:11:49;11.30;99.90
7129;DHT22;3606;52.930;8.644;2023-11-19T09:14:15;11.40;99.90
7129;DHT22;3606;52.930;8.644;2023-11-19T09:16:41;11.50;99.90
7129;DHT22;3606;52.930;8.644;2023-11-19T09:19:06;11.60;99.90
7129;DHT22;3606;52.930;8.644;2023-11-19T09:21:32;11.60;99.90
7129;DHT22;3606;52.930;8.644;2023-11-19T09:23:59;11.60;99.90
7129;DHT22;3606;52.930;8.644;2023-11-19T09:26:25;11.50;99.90
7129;DHT22;3606;52.930;8.644;2023-11-19T09:28:51;11.60;99.90
7129;DHT22;3606;52.930;8.644;2023-11-19T09:31:17;11.60;99.90
7129;DHT22;3606;52.930;8.644;2023-11-19T09:33:43;11.80;99.90
7129;DHT22;3606;52.930;8.644;2023-11-19T09:36:09;11.90;99.90
7129;DHT22;3606;52.930;8.644;2023-11-19T09:38:37;11.90;99.90
7129;DHT22;3606;52.930;8.644;2023-11-19T09:41:06;11.90;99.90
7129;DHT22;3606;52.930;8.644;2023-11-19T09:43:39;11.90;99.90
7129;DHT22;3606;52.930;8.644;2023-11-19T09:46:06;12.00;99.90
7129;DHT22;3606;52.930;8.644;2023-11-19T09:48:33;12.00;99.90
7129;DHT22;3606;52.930;8.644;2023-11-19T09:51:01;11.90;99.90
7129;DHT22;3606;52.930;8.644;2023-11-19T09:53:27;11.90;99.90
7129;DHT22;3606;52.930;8.644;2023-11-19T09:55:53;12.00;99.90
7129;DHT22;3606;52.930;8.644;2023-11-19T09:58:20;12.10;99.90
7129;DHT22;3606;52.930;8.644;2023-11-19T10:00:47;12.10;99.90
7129;DHT22;3606;52.930;8.644;2023-11-19T10:03:13;12.10;99.90
7129;DHT22;3606;52.930;8.644;2023-11-19T10:05:39;12.00;99.90
7129;DHT22;3606;52.930;8.644;2023-11-19T10:08:06;12.20;99.90
7129;DHT22;3606;52.930;8.644;2023-11-19T10:10:33;12.90;99.90
7129;DHT22;3606;52.930;8.644;2023-11-19T10:12:59;13.30;99.90
7129;DHT22;3606;52.930;8.644;2023-11-19T10:15:26;13.10;99.90
7129;DHT22;3606;52.930;8.644;2023-11-19T10:17:55;12.90;99.90
7129;DHT22;3606;52.930;8.644;2023-11-19T10:20:22;12.80;99.90
7129;DHT22;3606;52.930;8.644;2023-11-19T10:22:47;12.70;99.90
7129;DHT22;3606;52.930;8.644;2023-11-19T10:25:22;12.60;99.90
7129;DHT22;3606;52.930;8.644;2023-11-19T10:27:49;12.50;99.90
7129;DHT22;3606;52.930;8.644;2023-11-19T10:30:22;12.40;99.90
7129;DHT22;3606;52.930;8.644;2023-11-19T10:33:17;12.40;99.90
7129;DHT22;3606;52.930;8.644;2023-11-19T10:35:58;12.40;99.90
7129;DHT22;3606;52.930;8.644;2023-11-19T10:38:25;12.50;99.90
7129;DHT22;3606;52.930;8.644;2023-11-19T10:40:52;12.40;99.90
7129;DHT22;3606;52.930;8.644;2023-11-19T10:43:18;12.40;99.90
7129;DHT22;3606;52.930;8.644;2023-11-19T10:45:44;12.20;99.90
7129;DHT22;3606;52.930;8.644;2023-11-19T10:48:10;12.30;99.90
7129;DHT22;3606;52.930;8.644;2023-11-19T10:50:39;12.30;99.90
7129;DHT22;3606;52.930;8.644;2023-11-19T10:53:05;12.20;99.90
7129;DHT22;3606;52.930;8.644;2023-11-19T10:55:36;12.10;99.90
7129;DHT22;3606;52.930;8.644;2023-11-19T10:58:05;12.10;99.90
7129;DHT22;3606;52.930;8.644;2023-11-19T11:00:44;12.10;99.90
7129;DHT22;3606;52.930;8.644;2023-11-19T11:03:18;12.20;99.90
7129;DHT22;3606;52.930;8.644;2023-11-19T11:05:46;12.20;99.90
7129;DHT22;3606;52.930;8.644;2023-11-19T11:08:13;12.10;99.90
7129;DHT22;3606;52.930;8.644;2023-11-19T11:10:46;12.00;99.90
7129;DHT22;3606;52.930;8.644;2023-11-19T11:13:13;11.90;99.90
7129;DHT22;3606;52.930;8.644;2023-11-19T11:15:39;12.00;99.90
7129;DHT22;3606;52.930;8.644;2023-11-19T11:18:09;12.10;99.90
7129;DHT22;3606;52.930;8.644;2023-11-19T11:20:35;12.10;99.90
7129;DHT22;3606;52.930;8.644;2023-11-19T11:28:48;12.80;99.90
7129;DHT22;3606;52.930;8.644;2023-11-19T11:31:36;12.80;99.90
7129;DHT22;3606;52.930;8.644;2023-11-19T11:37:03;12.50;99.90
7129;DHT22;3606;52.930;8.644;2023-11-19T11:39:32;12.70;99.90
7129;DHT22;3606;52.930;8.644;2023-11-19T11:45:07;13.00;99.90
7129;DHT22;3606;52.930;8.644;2023-11-19T11:50:15;12.90;99.90
7129;DHT22;3606;52.930;8.644;2023-11-19T11:55:26;12.50;99.90
7129;DHT22;3606;52.930;8.644;2023-11-19T11:57:52;12.40;99.90
7129;DHT22;3606;52.930;8.644;2023-11-19T12:02:56;12.30;99.90
7129;DHT22;3606;52.930;8.644;2023-11-19T12:05:22;12.30;99.90
7129;DHT22;3606;52.930;8.644;2023-11-19T12:08:00;12.30;99.90
7129;DHT22;3606;52.930;8.644;2023-11-19T12:10:29;12.20;99.90
7129;DHT22;3606;52.930;8.644;2023-11-19T12:13:00;12.10;99.90
7129;DHT22;3606;52.930;8.644;2023-11-19T12:15:26;12.00;99.90
7129;DHT22;3606;52.930;8.644;2023-11-19T12:17:56;11.90;99.90
7129;DHT22;3606;52.930;8.644;2023-11-19T12:20:23;11.80;99.90
7129;DHT22;3606;52.930;8.644;2023-11-19T12:22:50;11.70;99.90
7129;DHT22;3606;52.930;8.644;2023-11-19T12:25:17;11.60;99.90
7129;DHT22;3606;52.930;8.644;2023-11-19T12:27:50;11.60;99.90
7129;DHT22;3606;52.930;8.644;2023-11-19T12:30:23;11.60;99.90
7129;DHT22;3606;52.930;8.644;2023-11-19T12:32:52;11.50;99.90
7129;DHT22;3606;52.930;8.644;2023-11-19T12:35:22;11.50;99.90
7129;DHT22;3606;52.930;8.644;2023-11-19T12:37:50;11.70;99.90
7129;DHT22;3606;52.930;8.644;2023-11-19T12:40:23;11.60;99.90
7129;DHT22;3606;52.930;8.644;2023-11-19T12:42:50;11.70;99.90
7129;DHT22;3606;52.930;8.644;2023-11-19T12:45:16;11.60;99.90
7129;DHT22;3606;52.930;8.644;2023-11-19T12:47:43;11.60;99.90
7129;DHT22;3606;52.930;8.644;2023-11-19T12:50:09;11.60;99.90
7129;DHT22;3606;52.930;8.644;2023-11-19T12:52:36;11.60;99.90
7129;DHT22;3606;52.930;8.644;2023-11-19T12:55:03;11.60;99.90
7129;DHT22;3606;52.930;8.644;2023-11-19T12:57:38;11.60;99.90
7129;DHT22;3606;52.930;8.644;2023-11-19T13:00:05;11.50;99.90
7129;DHT22;3606;52.930;8.644;2023-11-19T13:02:47;11.30;99.90
7129;DHT22;3606;52.930;8.644;2023-11-19T13:05:40;11.10;99.90
7129;DHT22;3606;52.930;8.644;2023-11-19T13:08:07;11.10;99.90
7129;DHT22;3606;52.930;8.644;2023-11-19T13:10:50;11.10;99.90
7129;DHT22;3606;52.930;8.644;2023-11-19T13:13:17;11.10;99.90
7129;DHT22;3606;52.930;8.644;2023-11-19T13:15:42;11.10;99.90
7129;DHT22;3606;52.930;8.644;2023-11-19T13:18:10;11.10;99.90
7129;DHT22;3606;52.930;8.644;2023-11-19T13:20:35;11.10;99.90
7129;DHT22;3606;52.930;8.644;2023-11-19T13:23:03;11.10;99.90
7129;DHT22;3606;52.930;8.644;2023-11-19T13:25:30;11.10;99.90
7129;DHT22;3606;52.930;8.644;2023-11-19T13:27:55;11.10;99.90
7129;DHT22;3606;52.930;8.644;2023-11-19T13:30:22;11.10;99.90
7129;DHT22;3606;52.930;8.644;2023-11-19T13:32:48;11.00;99.90
7129;DHT22;3606;52.930;8.644;2023-11-19T13:35:15;11.00;99.90
7129;DHT22;3606;52.930;8.644;2023-11-19T13:37:40;11.20;99.90
7129;DHT22;3606;52.930;8.644;2023-11-19T13:40:07;11.20;99.90
7129;DHT22;3606;52.930;8.644;2023-11-19T13:42:33;11.30;99.90
7129;DHT22;3606;52.930;8.644;2023-11-19T13:44:58;11.30;99.90
7129;DHT22;3606;52.930;8.644;2023-11-19T13:47:24;11.30;99.90
7129;DHT22;3606;52.930;8.644;2023-11-19T13:49:50;11.20;99.90
7129;DHT22;3606;52.930;8.644;2023-11-19T13:52:15;11.20;99.90
7129;DHT22;3606;52.930;8.644;2023-11-19T13:54:41;11.30;99.90
7129;DHT22;3606;52.930;8.644;2023-11-19T13:57:06;11.20;99.90
7129;DHT22;3606;52.930;8.644;2023-11-19T13:59:32;11.10;99.90
7129;DHT22;3606;52.930;8.644;2023-11-19T14:01:58;11.00;99.90
7129;DHT22;3606;52.930;8.644;2023-11-19T14:04:24;10.90;99.90
7129;DHT22;3606;52.930;8.644;2023-11-19T14:06:50;10.80;99.90
7129;DHT22;3606;52.930;8.644;2023-11-19T14:09:16;10.80;99.90
7129;DHT22;3606;52.930;8.644;2023-11-19T14:11:41;10.80;99.90
7129;DHT22;3606;52.930;8.644;2023-11-19T14:14:07;10.80;99.90
7129;DHT22;3606;52.930;8.644;2023-11-19T14:16:33;10.70;99.90
7129;DHT22;3606;52.930;8.644;2023-11-19T14:19:00;10.70;99.90
7129;DHT22;3606;52.930;8.644;2023-11-19T14:21:25;10.70;99.90
7129;DHT22;3606;52.930;8.644;2023-11-19T14:23:52;10.60;99.90
7129;DHT22;3606;52.930;8.644;2023-11-19T14:26:18;10.60;99.90
7129;DHT22;3606;52.930;8.644;2023-11-19T14:28:43;10.50;99.90
7129;DHT22;3606;52.930;8.644;2023-11-19T14:31:09;10.50;99.90
7129;DHT22;3606;52.930;8.644;2023-11-19T14:33:34;10.50;99.90
7129;DHT22;3606;52.930;8.644;2023-11-19T14:36:01;10.50;99.90
7129;DHT22;3606;52.930;8.644;2023-11-19T14:38:27;10.50;99.90
7129;DHT22;3606;52.930;8.644;2023-11-19T14:40:53;10.50;99.90
7129;DHT22;3606;52.930;8.644;2023-11-19T14:43:18;10.50;99.90
7129;DHT22;3606;52.930;8.644;2023-11-19T14:45:44;10.50;99.90
7129;DHT22;3606;52.930;8.644;2023-11-19T14:48:09;10.50;99.90
7129;DHT22;3606;52.930;8.644;2023-11-19T14:50:35;10.50;99.90
7129;DHT22;3606;52.930;8.644;2023-11-19T14:53:01;10.50;99.90
7129;DHT22;3606;52.930;8.644;2023-11-19T14:55:27;10.50;99.90
7129;DHT22;3606;52.930;8.644;2023-11-19T14:57:53;10.50;99.90
7129;DHT22;3606;52.930;8.644;2023-11-19T15:00:19;10.50;99.90
7129;DHT22;3606;52.930;8.644;2023-11-19T15:02:45;10.60;99.90
7129;DHT22;3606;52.930;8.644;2023-11-19T15:05:10;10.70;99.90
7129;DHT22;3606;52.930;8.644;2023-11-19T15:07:37;10.70;99.90
7129;DHT22;3606;52.930;8.644;2023-11-19T15:10:03;10.70;99.90
7129;DHT22;3606;52.930;8.644;2023-11-19T15:12:29;10.70;99.90
7129;DHT22;3606;52.930;8.644;2023-11-19T15:14:55;10.80;99.90
7129;DHT22;3606;52.930;8.644;2023-11-19T15:17:20;10.80;99.90
7129;DHT22;3606;52.930;8.644;2023-11-19T15:19:47;10.80;99.90
7129;DHT22;3606;52.930;8.644;2023-11-19T15:22:13;10.80;99.90
7129;DHT22;3606;52.930;8.644;2023-11-19T15:24:38;10.70;99.90
7129;DHT22;3606;52.930;8.644;2023-11-19T15:27:07;10.70;99.90
7129;DHT22;3606;52.930;8.644;2023-11-19T15:29:35;10.70;99.90
7129;DHT22;3606;52.930;8.644;2023-11-19T15:32:00;10.80;99.90
7129;DHT22;3606;52.930;8.644;2023-11-19T15:34:26;10.80;99.90
7129;DHT22;3606;52.930;8.644;2023-11-19T15:36:51;10.80;99.90
7129;DHT22;3606;52.930;8.644;2023-11-19T15:39:17;10.80;99.90
7129;DHT22;3606;52.930;8.644;2023-11-19T15:41:43;10.80;99.90
7129;DHT22;3606;52.930;8.644;2023-11-19T15:44:09;10.70;99.90
7129;DHT22;3606;52.930;8.644;2023-11-19T15:46:34;10.60;99.90
7129;DHT22;3606;52.930;8.644;2023-11-19T15:49:00;10.60;99.90
7129;DHT22;3606;52.930;8.644;2023-11-19T15:51:25;10.70;99.90
7129;DHT22;3606;52.930;8.644;2023-11-19T15:53:51;10.60;99.90
7129;DHT22;3606;52.930;8.644;2023-11-19T15:56:16;10.70;99.90
7129;DHT22;3606;52.930;8.644;2023-11-19T15:58:42;10.60;99.90
7129;DHT22;3606;52.930;8.644;2023-11-19T16:01:08;10.70;99.90
7129;DHT22;3606;52.930;8.644;2023-11-19T16:03:34;10.60;99.90
7129;DHT22;3606;52.930;8.644;2023-11-19T16:05:59;10.60;99.90
7129;DHT22;3606;52.930;8.644;2023-11-19T16:08:25;10.60;99.90
7129;DHT22;3606;52.930;8.644;2023-11-19T16:10:50;10.60;99.90
7129;DHT22;3606;52.930;8.644;2023-11-19T16:13:16;10.60;99.90
7129;DHT22;3606;52.930;8.644;2023-11-19T16:15:42;10.60;99.90
7129;DHT22;3606;52.930;8.644;2023-11-19T16:18:07;10.60;99.90
7129;DHT22;3606;52.930;8.644;2023-11-19T16:20:35;10.60;99.90
7129;DHT22;3606;52.930;8.644;2023-11-19T16:23:01;10.70;99.90